Time;durP1;ratioP1;P1;durP2;ratioP2;P2;SDS_P1;SDS_P2;PMS_P1;PMS_P2;Temp;Humidity;BMP_temperature;BMP_pressure;BME280_temperature;BME280_humidity;BME280_pressure;Samples;Min_cycle;Max_cycle;Signal;HPM_P1;HPM_P2
2022/04/09 00:00:07;;;;;;;4.35;2.00;;;;;;;2.49;100.00;98889.06;6007637;29;20049;-93
2022/04/09 00:03:10;;;;;;;5.50;1.70;;;;;;;2.48;100.00;98901.94;6012327;29;20845;-94
2022/04/09 00:06:12;;;;;;;6.90;1.83;;;;;;;2.33;100.00;98899.56;6020996;29;20048;-94
2022/04/09 00:09:14;;;;;;;6.40;2.03;;;;;;;2.28;100.00;98901.63;6021506;29;20049;-94
2022/04/09 00:12:16;;;;;;;6.15;1.95;;;;;;;2.32;100.00;98910.69;6018645;29;20048;-94
2022/04/09 00:15:18;;;;;;;5.75;1.80;;;;;;;2.36;100.00;98907.00;6014175;29;21095;-93
2022/04/09 00:18:20;;;;;;;5.20;2.10;;;;;;;2.42;100.00;98912.59;6016670;29;20049;-94
2022/04/09 00:21:22;;;;;;;6.47;1.80;;;;;;;2.31;100.00;98915.91;6020976;29;20045;-95
2022/04/09 00:24:24;;;;;;;6.40;1.98;;;;;;;2.28;100.00;98916.94;6018147;29;20050;-95
2022/04/09 00:27:27;;;;;;;5.93;2.35;;;;;;;2.30;100.00;98921.94;6017207;29;20045;-96
2022/04/09 00:31:02;;;;;;;11.32;2.92;;;;;;;2.32;100.00;98923.47;6019739;29;20041;-95
2022/04/09 00:34:31;;;;;;;6.03;1.48;;;;;;;2.22;100.00;98924.22;6011157;29;20956;-94
2022/04/09 00:37:41;;;;;;;6.03;1.75;;;;;;;2.35;100.00;98938.56;6005899;29;20045;-93
2022/04/09 00:40:43;;;;;;;7.17;2.07;;;;;;;2.35;100.00;98942.84;6013095;29;20053;-94
2022/04/09 00:43:45;;;;;;;5.10;1.73;;;;;;;2.28;100.00;98947.56;6010514;29;20061;-93
2022/04/09 00:46:48;;;;;;;8.45;2.25;;;;;;;2.26;100.00;98948.59;6009658;29;20152;-93
2022/04/09 00:49:49;;;;;;;4.45;1.63;;;;;;;2.25;100.00;98960.56;6003265;29;20114;-93
2022/04/09 00:52:57;;;;;;;6.82;1.80;;;;;;;2.38;100.00;98963.06;6012071;29;20055;-93
2022/04/09 00:56:16;;;;;;;3.20;1.92;;;;;;;2.26;100.00;98969.03;6014847;29;20049;-91
2022/04/09 00:59:23;;;;;;;8.20;2.05;;;;;;;2.42;100.00;98976.44;6009465;29;20044;-91
2022/04/09 01:02:25;;;;;;;10.32;3.15;;;;;;;2.52;100.00;98968.03;6010498;29;20144;-90
2022/04/09 01:05:28;;;;;;;6.63;1.73;;;;;;;2.53;100.00;98986.69;6014264;29;20058;-90
2022/04/09 01:08:30;;;;;;;12.55;2.20;;;;;;;2.40;100.00;98986.75;6022194;29;20125;-90
2022/04/09 01:11:32;;;;;;;4.65;1.80;;;;;;;2.50;100.00;98992.84;6013158;29;20407;-90
2022/04/09 01:14:36;;;;;;;9.70;2.28;;;;;;;2.66;100.00;99002.81;6020261;29;20053;-90
2022/04/09 01:17:39;;;;;;;8.55;2.08;;;;;;;2.74;100.00;99005.63;6016561;29;20597;-89
2022/04/09 01:20:43;;;;;;;5.00;1.65;;;;;;;2.71;100.00;99010.16;6030801;29;20045;-89
2022/04/09 01:23:45;;;;;;;3.60;1.75;;;;;;;2.76;100.00;99011.44;6012027;29;20367;-89
2022/04/09 01:26:48;;;;;;;9.45;2.03;;;;;;;2.71;100.00;99023.75;6015603;29;20062;-89
2022/04/09 01:29:59;;;;;;;6.53;1.50;;;;;;;2.71;100.00;99012.72;6014027;29;20495;-89
2022/04/09 01:33:02;;;;;;;11.48;2.42;;;;;;;2.61;100.00;99027.03;6011368;29;20503;-88
2022/04/09 01:36:04;;;;;;;5.82;1.85;;;;;;;2.74;100.00;99038.03;6007646;29;20038;-89
2022/04/09 01:39:07;;;;;;;7.85;2.05;;;;;;;2.78;100.00;99037.72;6010084;29;20292;-88
2022/04/09 01:42:10;;;;;;;4.30;2.05;;;;;;;2.68;100.00;99048.66;6014604;29;20046;-89
2022/04/09 01:45:16;;;;;;;5.25;2.03;;;;;;;2.70;100.00;99060.41;6017404;29;20520;-88
2022/04/09 01:48:18;;;;;;;5.68;2.00;;;;;;;2.61;100.00;99053.41;6033424;29;20147;-88
2022/04/09 01:51:20;;;;;;;5.03;2.00;;;;;;;2.55;100.00;99074.25;6016224;29;20053;-88
2022/04/09 01:54:22;;;;;;;4.40;1.92;;;;;;;2.69;100.00;99071.56;6011700;29;20472;-88
2022/04/09 01:57:24;;;;;;;8.18;2.60;;;;;;;2.82;100.00;99068.16;6002051;29;20049;-89
2022/04/09 02:00:27;;;;;;;6.10;2.72;;;;;;;2.81;100.00;99082.66;6020775;29;20241;-88
2022/04/09 02:03:30;;;;;;;4.47;2.05;;;;;;;3.01;100.00;99084.63;6021018;29;20239;-88
2022/04/09 02:06:32;;;;;;;7.35;2.33;;;;;;;2.91;100.00;99096.44;5994458;29;20057;-88
2022/04/09 02:09:35;;;;;;;10.00;2.40;;;;;;;2.71;100.00;99095.28;5997084;29;20049;-87
2022/04/09 02:12:38;;;;;;;7.35;2.10;;;;;;;2.75;100.00;99094.13;6013533;29;20050;-88
2022/04/09 02:15:40;;;;;;;13.48;2.60;;;;;;;2.87;100.00;99118.00;6026258;29;20666;-87
2022/04/09 02:18:43;;;;;;;8.18;2.58;;;;;;;2.88;100.00;99113.69;5991013;29;20071;-87
2022/04/09 02:21:45;;;;;;;6.47;2.03;;;;;;;2.88;100.00;99113.69;6029713;29;20049;-88
2022/04/09 02:24:50;;;;;;;7.97;2.40;;;;;;;2.85;100.00;99113.94;6023727;29;20714;-88
2022/04/09 02:27:52;;;;;;;7.85;2.20;;;;;;;2.96;100.00;99125.03;6019949;29;20206;-87
2022/04/09 02:30:57;;;;;;;8.85;2.50;;;;;;;2.87;100.00;99133.34;6016333;29;20049;-88
2022/04/09 02:34:09;;;;;;;7.85;2.53;;;;;;;2.87;100.00;99132.53;6006304;29;20520;-87
2022/04/09 02:37:11;;;;;;;8.70;1.98;;;;;;;2.83;100.00;99141.31;6020063;29;20084;-87
2022/04/09 02:40:13;;;;;;;10.30;2.20;;;;;;;2.79;100.00;99136.44;6021140;29;20123;-88
2022/04/09 02:43:16;;;;;;;9.45;2.50;;;;;;;2.70;100.00;99161.78;6018127;29;20456;-87
2022/04/09 02:46:21;;;;;;;14.48;3.63;;;;;;;2.57;100.00;99154.16;6012132;29;20061;-87
2022/04/09 02:49:23;;;;;;;5.35;2.13;;;;;;;2.63;100.00;99165.69;6014138;29;20053;-87
2022/04/09 02:52:27;;;;;;;8.07;2.33;;;;;;;2.66;100.00;99181.63;6021432;29;20412;-87
2022/04/09 02:55:30;;;;;;;6.93;2.35;;;;;;;2.58;100.00;99174.50;6017473;29;20050;-87
2022/04/09 02:58:32;;;;;;;6.00;2.33;;;;;;;2.67;100.00;99188.38;6021832;29;20072;-87
2022/04/09 03:01:34;;;;;;;5.47;1.88;;;;;;;2.86;100.00;99194.75;6003081;29;20057;-87
2022/04/09 03:04:37;;;;;;;6.60;2.67;;;;;;;2.78;100.00;99203.78;6028623;29;20799;-87
2022/04/09 03:07:39;;;;;;;6.05;1.92;;;;;;;2.62;100.00;99200.63;6014270;29;20037;-87
2022/04/09 03:10:41;;;;;;;6.80;2.42;;;;;;;2.56;100.00;99224.03;6020970;29;20050;-87
2022/04/09 03:13:43;;;;;;;5.00;1.52;;;;;;;2.51;100.00;99213.28;6013746;29;20774;-87
2022/04/09 03:16:45;;;;;;;11.60;2.22;;;;;;;2.51;100.00;99213.28;6008959;29;21098;-87
2022/04/09 03:19:47;;;;;;;8.32;2.10;;;;;;;2.56;100.00;99218.94;6011585;29;20046;-87
2022/04/09 03:22:49;;;;;;;9.10;2.42;;;;;;;2.52;100.00;99227.72;6009226;29;20449;-87
2022/04/09 03:26:01;;;;;;;4.43;1.90;;;;;;;2.50;100.00;99227.00;6026903;29;20060;-87
2022/04/09 03:29:11;;;;;;;6.30;2.65;;;;;;;2.41;100.00;99233.53;6012559;29;20189;-87
2022/04/09 03:32:13;;;;;;;5.75;2.22;;;;;;;2.45;100.00;99246.91;6043612;29;20810;-87
2022/04/09 03:35:16;;;;;;;8.60;2.03;;;;;;;2.36;100.00;99243.22;6021384;29;20049;-87
2022/04/09 03:38:20;;;;;;;7.20;1.92;;;;;;;2.53;100.00;99252.31;6016892;29;20057;-87
2022/04/09 03:41:26;;;;;;;7.07;2.20;;;;;;;2.54;100.00;99251.41;6009589;29;20067;-86
2022/04/09 03:44:36;;;;;;;7.05;2.10;;;;;;;2.57;100.00;99257.13;6031237;29;20081;-87
2022/04/09 03:47:38;;;;;;;4.28;1.88;;;;;;;2.63;100.00;99267.84;6038559;29;20146;-86
2022/04/09 03:50:46;;;;;;;11.38;2.08;;;;;;;2.58;100.00;99251.13;6028650;29;20060;-86
2022/04/09 03:53:51;;;;;;;5.45;1.70;;;;;;;2.63;100.00;99261.00;6024278;29;20065;-86
2022/04/09 03:56:53;;;;;;;8.45;2.42;;;;;;;2.56;100.00;99281.06;6021317;29;20098;-86
2022/04/09 04:00:01;;;;;;;6.35;2.08;;;;;;;2.61;100.00;99280.75;5998809;29;20054;-89
2022/04/09 04:03:04;;;;;;;11.20;2.08;;;;;;;2.59;100.00;99285.94;6025080;29;20053;-89
2022/04/09 04:06:07;;;;;;;4.90;1.80;;;;;;;2.54;100.00;99299.94;6004174;29;20053;-89
2022/04/09 04:09:10;;;;;;;9.30;2.78;;;;;;;2.62;100.00;99296.88;6008098;29;20046;-89
2022/04/09 04:12:12;;;;;;;8.02;1.98;;;;;;;2.56;100.00;99303.22;6012023;29;20060;-89
2022/04/09 04:15:15;;;;;;;6.28;1.88;;;;;;;2.49;100.00;99302.81;6024079;29;20308;-89
2022/04/09 04:18:20;;;;;;;7.30;2.35;;;;;;;2.44;100.00;99320.16;6018077;29;20053;-89
2022/04/09 04:21:27;;;;;;;4.82;2.28;;;;;;;2.49;100.00;99313.03;6025455;29;20174;-89
2022/04/09 04:24:37;;;;;;;4.30;1.92;;;;;;;2.49;100.00;99320.69;6020979;29;20074;-88
2022/04/09 04:27:49;;;;;;;2.35;1.77;;;;;;;2.47;100.00;99329.34;6019096;29;20082;-89
2022/04/09 04:30:53;;;;;;;9.25;2.20;;;;;;;2.44;100.00;99332.13;6022466;29;20483;-89
2022/04/09 04:33:55;;;;;;;6.63;2.05;;;;;;;2.45;100.00;99331.19;6008899;29;20048;-89
2022/04/09 04:36:57;;;;;;;5.57;2.13;;;;;;;2.40;100.00;99341.69;6016578;29;20045;-88
2022/04/09 04:40:01;;;;;;;6.35;1.90;;;;;;;2.41;100.00;99357.84;6017934;29;20495;-89
2022/04/09 04:43:03;;;;;;;11.05;2.20;;;;;;;2.34;100.00;99359.97;6025385;29;20052;-88
2022/04/09 04:46:05;;;;;;;5.70;2.22;;;;;;;2.34;100.00;99358.22;6026717;29;20844;-89
2022/04/09 04:49:09;;;;;;;5.40;2.20;;;;;;;2.31;100.00;99363.53;6021082;29;20057;-89
2022/04/09 04:52:12;;;;;;;6.45;2.13;;;;;;;2.48;100.00;99369.28;6016326;29;20400;-88
2022/04/09 04:55:15;;;;;;;7.18;2.55;;;;;;;2.48;100.00;99377.78;6021347;29;20085;-88
2022/04/09 04:58:21;;;;;;;5.82;1.98;;;;;;;2.54;100.00;99389.34;6009522;29;20053;-88
2022/04/09 05:01:40;;;;;;;7.72;2.65;;;;;;;2.45;100.00;99393.28;6014536;29;20089;-88
2022/04/09 05:04:46;;;;;;;8.63;2.70;;;;;;;2.42;100.00;99392.69;6022339;29;20045;-89
2022/04/09 05:07:52;;;;;;;5.03;1.95;;;;;;;2.47;100.00;99399.13;6000463;29;20054;-88
2022/04/09 05:10:57;;;;;;;8.75;2.28;;;;;;;2.48;100.00;99399.94;6014589;29;20148;-88
2022/04/09 05:14:03;;;;;;;8.00;2.67;;;;;;;2.45;100.00;99412.91;6006548;29;20054;-88
2022/04/09 05:17:07;;;;;;;7.43;2.22;;;;;;;2.52;100.00;99409.06;6025093;29;20086;-88
2022/04/09 05:20:14;;;;;;;7.35;2.80;;;;;;;2.59;100.00;99417.97;6017550;29;20511;-88
2022/04/09 05:23:18;;;;;;;5.65;2.20;;;;;;;2.59;100.00;99420.53;6016146;29;20052;-88
2022/04/09 05:26:20;;;;;;;7.85;2.25;;;;;;;2.70;100.00;99423.19;6024727;29;20204;-89
2022/04/09 05:29:24;;;;;;;7.70;2.53;;;;;;;2.68;100.00;99421.66;6021479;29;20068;-88
2022/04/09 05:32:26;;;;;;;6.68;2.78;;;;;;;2.69;100.00;99434.34;6028199;29;20048;-88
2022/04/09 05:35:29;;;;;;;6.13;2.30;;;;;;;2.67;100.00;99443.84;6016393;29;20060;-88
2022/04/09 05:38:32;;;;;;;6.13;2.75;;;;;;;2.67;100.00;99443.84;6032578;29;20196;-88
2022/04/09 05:41:36;;;;;;;11.32;2.80;;;;;;;2.72;100.00;99448.66;6022854;29;20052;-88
2022/04/09 05:44:38;;;;;;;8.30;2.72;;;;;;;2.79;100.00;99457.56;6013416;29;20053;-89
2022/04/09 05:47:45;;;;;;;4.60;2.45;;;;;;;2.90;100.00;99462.81;6014741;29;20057;-88
2022/04/09 05:50:50;;;;;;;6.97;2.55;;;;;;;3.07;100.00;99466.81;6027432;29;20053;-88
2022/04/09 05:53:53;;;;;;;8.85;2.85;;;;;;;3.30;100.00;99472.19;6005202;29;20049;-88
2022/04/09 05:56:58;;;;;;;6.93;2.38;;;;;;;3.37;100.00;99481.91;6019807;29;20046;-88
2022/04/09 06:00:06;;;;;;;7.80;2.40;;;;;;;3.37;100.00;99504.91;6021111;29;20053;-88
2022/04/09 06:03:17;;;;;;;6.53;2.08;;;;;;;3.42;100.00;99499.50;6021724;29;20055;-89
2022/04/09 06:06:20;;;;;;;3.47;1.73;;;;;;;3.30;100.00;99492.63;6018896;29;20057;-88
2022/04/09 06:09:37;;;;;;;6.55;2.50;;;;;;;3.27;100.00;99508.19;6016204;29;20748;-88
2022/04/09 06:12:48;;;;;;;3.45;1.55;;;;;;;3.29;100.00;99506.34;6022466;29;20132;-88
2022/04/09 06:15:55;;;;;;;4.35;1.80;;;;;;;3.23;100.00;99523.75;6004790;29;20084;-88
2022/04/09 06:19:01;;;;;;;5.45;1.63;;;;;;;3.29;100.00;99521.69;6022773;29;20045;-88
2022/04/09 06:22:03;;;;;;;9.50;2.75;;;;;;;3.30;100.00;99521.59;6023812;29;20077;-88
2022/04/09 06:25:06;;;;;;;4.45;1.98;;;;;;;3.30;100.00;99531.00;6018734;29;20054;-89
2022/04/09 06:28:08;;;;;;;8.23;2.25;;;;;;;3.37;100.00;99534.81;6020655;29;20057;-89
2022/04/09 06:31:14;;;;;;;7.85;2.30;;;;;;;3.46;100.00;99541.88;6018226;29;20595;-87
2022/04/09 06:34:17;;;;;;;5.13;1.85;;;;;;;3.62;100.00;99532.25;6031855;29;20098;-88
2022/04/09 06:37:21;;;;;;;12.80;2.03;;;;;;;3.78;100.00;99541.50;6012367;29;20053;-88
2022/04/09 06:40:26;;;;;;;6.43;2.30;;;;;;;3.93;100.00;99552.47;6016483;29;20101;-88
2022/04/09 06:43:30;;;;;;;5.35;1.48;;;;;;;4.12;100.00;99555.41;6021319;29;20061;-88
2022/04/09 06:47:01;;;;;;;5.88;1.90;;;;;;;4.12;100.00;99563.06;5937093;29;20055;-87
2022/04/09 06:50:12;;;;;;;10.27;2.00;;;;;;;4.05;100.00;99566.97;5936321;29;20066;-88
2022/04/09 06:53:15;;;;;;;6.00;1.73;;;;;;;4.17;100.00;99571.25;5932646;29;20047;-89
2022/04/09 06:56:17;;;;;;;4.65;1.50;;;;;;;4.21;100.00;99571.91;5937910;29;20043;-88
2022/04/09 06:59:18;;;;;;;6.80;1.73;;;;;;;4.25;100.00;99593.81;5935826;29;20047;-89
2022/04/09 07:02:20;;;;;;;8.40;1.90;;;;;;;4.25;100.00;99575.91;5932998;29;20523;-88
2022/04/09 07:05:22;;;;;;;7.57;2.05;;;;;;;4.30;100.00;99586.66;5943885;29;20070;-88
2022/04/09 07:08:24;;;;;;;7.10;2.42;;;;;;;4.42;100.00;99605.47;5944135;29;20038;-88
2022/04/09 07:11:27;;;;;;;5.68;1.60;;;;;;;4.52;100.00;99602.19;5942910;29;20140;-90
2022/04/09 07:14:28;;;;;;;4.40;1.90;;;;;;;4.59;100.00;99609.44;5934677;29;20107;-89
2022/04/09 07:17:31;;;;;;;5.10;2.15;;;;;;;4.69;100.00;99598.44;5935382;29;20545;-88
2022/04/09 07:20:35;;;;;;;4.35;1.88;;;;;;;4.94;100.00;99599.28;5944015;29;20066;-88
2022/04/09 07:23:37;;;;;;;6.72;1.80;;;;;;;5.16;100.00;99609.66;5985420;29;20190;-88
2022/04/09 07:26:39;;;;;;;7.38;1.60;;;;;;;5.28;100.00;99633.63;6006376;29;20056;-88
2022/04/09 07:29:40;;;;;;;3.63;1.67;;;;;;;5.28;100.00;99622.56;6010189;29;20170;-90
2022/04/09 07:32:43;;;;;;;8.52;1.70;;;;;;;5.36;100.00;99623.63;6005382;29;20060;-88
2022/04/09 07:35:45;;;;;;;8.98;2.17;;;;;;;5.49;100.00;99631.28;6013561;29;20053;-87
2022/04/09 07:38:47;;;;;;;8.57;2.05;;;;;;;5.59;100.00;99629.69;6006219;29;20056;-89
2022/04/09 07:41:49;;;;;;;3.08;1.65;;;;;;;5.54;100.00;99630.94;6009475;29;20041;-88
2022/04/09 07:44:52;;;;;;;6.78;2.03;;;;;;;5.63;100.00;99647.44;6012724;29;20396;-88
2022/04/09 07:47:55;;;;;;;10.70;2.58;;;;;;;5.41;100.00;99633.56;6017631;29;20076;-88
2022/04/09 07:50:57;;;;;;;5.65;1.70;;;;;;;5.34;100.00;99640.06;6008382;29;20038;-88
2022/04/09 07:53:59;;;;;;;6.75;1.90;;;;;;;5.36;100.00;99633.09;6012756;29;20128;-89
2022/04/09 07:57:01;;;;;;;4.78;2.35;;;;;;;5.61;100.00;99652.66;6002129;29;20062;-88
2022/04/09 08:00:04;;;;;;;3.90;1.50;;;;;;;5.76;100.00;99649.00;6006422;29;20128;-88
2022/04/09 08:03:12;;;;;;;8.23;2.42;;;;;;;5.68;100.00;99653.88;6012317;29;20053;-89
2022/04/09 08:06:14;;;;;;;8.10;1.50;;;;;;;5.73;100.00;99663.81;6004228;29;20057;-88
2022/04/09 08:09:16;;;;;;;5.10;1.52;;;;;;;5.92;100.00;99665.84;6014717;29;20423;-88
2022/04/09 08:12:19;;;;;;;4.10;1.70;;;;;;;5.97;100.00;99669.75;6004538;29;20423;-88
2022/04/09 08:15:21;;;;;;;6.18;1.77;;;;;;;5.96;100.00;99667.28;6008002;29;20128;-90
2022/04/09 08:18:23;;;;;;;5.30;1.83;;;;;;;5.89;100.00;99663.50;6007555;29;20057;-88
2022/04/09 08:21:39;;;;;;;5.43;1.95;;;;;;;5.89;100.00;99661.78;6006561;29;20041;-89
2022/04/09 08:24:42;;;;;;;6.88;1.70;;;;;;;5.88;100.00;99679.84;6002615;29;20071;-89
2022/04/09 08:27:45;;;;;;;5.57;1.60;;;;;;;5.81;100.00;99685.44;6002358;29;20136;-88
2022/04/09 08:30:47;;;;;;;5.30;1.35;;;;;;;5.99;100.00;99662.75;6023366;29;20050;-89
2022/04/09 08:33:49;;;;;;;4.70;1.48;;;;;;;6.42;100.00;99695.53;6000635;29;20190;-88
2022/04/09 08:36:51;;;;;;;2.78;1.13;;;;;;;6.33;100.00;99679.97;6000264;29;20050;-89
2022/04/09 08:39:54;;;;;;;3.50;1.55;;;;;;;6.34;100.00;99686.78;6001405;29;20058;-88
2022/04/09 08:42:56;;;;;;;4.50;1.33;;;;;;;6.45;100.00;99690.16;6010398;29;20049;-89
2022/04/09 08:46:02;;;;;;;6.35;3.00;;;;;;;6.62;100.00;99696.59;6002699;29;20061;-89
2022/04/09 08:49:06;;;;;;;5.03;2.25;;;;;;;6.85;100.00;99696.59;6011526;29;20101;-89
2022/04/09 08:52:08;;;;;;;6.32;1.20;;;;;;;6.94;100.00;99697.66;6009293;29;20045;-90
2022/04/09 08:55:14;;;;;;;4.40;1.15;;;;;;;6.80;100.00;99709.00;6019380;29;20681;-88
2022/04/09 08:58:15;;;;;;;3.95;1.30;;;;;;;6.57;100.00;99701.28;6010610;29;20053;-91
2022/04/09 09:01:21;;;;;;;5.53;1.50;;;;;;;6.71;100.00;99701.97;6013940;29;20198;-90
2022/04/09 09:04:23;;;;;;;5.45;1.45;;;;;;;6.85;100.00;99699.97;6020099;29;20058;-91
2022/04/09 09:07:25;;;;;;;4.38;1.17;;;;;;;7.01;100.00;99707.34;6017982;29;20073;-92
2022/04/09 09:10:28;;;;;;;4.80;1.75;;;;;;;7.04;100.00;99726.88;6019987;29;20517;-91
2022/04/09 09:13:29;;;;;;;4.10;1.50;;;;;;;6.64;100.00;99723.00;6015669;29;20033;-92
2022/04/09 09:16:32;;;;;;;6.22;1.45;;;;;;;6.61;100.00;99707.81;6016807;29;20042;-91
2022/04/09 09:19:45;;;;;;;3.78;1.17;;;;;;;6.67;100.00;99715.06;6018103;29;20049;-90
2022/04/09 09:22:49;;;;;;;3.33;1.13;;;;;;;6.80;100.00;99719.28;6023017;29;20081;-90
2022/04/09 09:25:52;;;;;;;3.13;1.17;;;;;;;7.22;100.00;99719.47;6010981;29;20049;-90
2022/04/09 09:28:56;;;;;;;3.83;1.00;;;;;;;7.42;100.00;99717.91;6000797;29;20058;-91
2022/04/09 09:32:00;;;;;;;4.80;1.38;;;;;;;7.65;100.00;99710.94;6024621;29;20038;-92
2022/04/09 09:35:02;;;;;;;7.07;1.55;;;;;;;7.71;100.00;99713.84;6014730;29;20551;-91
2022/04/09 09:38:20;;;;;;;4.20;1.55;;;;;;;7.64;96.98;99724.75;6022900;29;20049;-91
2022/04/09 09:41:24;;;;;;;4.53;1.25;;;;;;;7.54;96.84;99722.09;6009166;29;20041;-90
2022/04/09 09:44:27;;;;;;;2.92;1.10;;;;;;;7.60;96.98;99713.88;6019018;29;20042;-91
2022/04/09 09:47:29;;;;;;;5.90;1.25;;;;;;;7.86;96.11;99716.94;6008743;29;20042;-91
2022/04/09 09:50:41;;;;;;;4.95;1.52;;;;;;;8.06;98.25;99728.22;6011974;29;20049;-89
2022/04/09 09:53:43;;;;;;;2.45;1.10;;;;;;;7.99;96.61;99722.75;6027260;29;20057;-90
2022/04/09 09:56:45;;;;;;;2.92;1.00;;;;;;;7.89;95.08;99718.47;6013668;29;20046;-91
2022/04/09 09:59:49;;;;;;;4.28;1.17;;;;;;;7.23;100.00;99755.41;6016368;29;20049;-92
2022/04/09 10:02:51;;;;;;;3.70;1.02;;;;;;;5.96;100.00;99777.72;6014053;29;20049;-89
2022/04/09 10:05:54;;;;;;;3.20;1.02;;;;;;;5.30;100.00;99762.66;6019529;29;20379;-90
2022/04/09 10:08:57;;;;;;;3.45;1.20;;;;;;;5.08;100.00;99747.09;6012623;29;20426;-89
2022/04/09 10:11:59;;;;;;;5.88;1.13;;;;;;;5.21;100.00;99778.66;6021008;29;20119;-88
2022/04/09 10:15:01;;;;;;;3.55;1.40;;;;;;;5.35;100.00;99752.88;6021115;29;20049;-87
2022/04/09 10:18:07;;;;;;;5.43;1.67;;;;;;;5.62;100.00;99762.16;6009772;29;20038;-89
2022/04/09 10:21:10;;;;;;;6.80;1.55;;;;;;;6.12;100.00;99755.16;6015499;29;20393;-88
2022/04/09 10:24:23;;;;;;;3.38;1.20;;;;;;;6.71;100.00;99756.81;6010785;29;20078;-91
2022/04/09 10:27:43;;;;;;;7.13;2.20;;;;;;;7.02;100.00;99783.59;6012992;29;20045;-88
2022/04/09 10:30:45;;;;;;;2.73;1.30;;;;;;;6.99;100.00;99763.25;6018223;29;20061;-86
2022/04/09 10:33:55;;;;;;;5.00;1.20;;;;;;;7.12;100.00;99763.13;6013627;29;20295;-88
2022/04/09 10:36:59;;;;;;;4.70;1.40;;;;;;;7.38;100.00;99760.28;6013251;29;20045;-87
2022/04/09 10:40:05;;;;;;;2.67;1.02;;;;;;;7.44;100.00;99760.63;6020153;29;20061;-88
2022/04/09 10:43:06;;;;;;;1.75;1.25;;;;;;;7.36;100.00;99762.19;6015751;29;20049;-89
2022/04/09 10:46:10;;;;;;;2.15;1.58;;;;;;;7.49;100.00;99750.78;6007461;29;20054;-89
2022/04/09 10:49:16;;;;;;;4.38;1.38;;;;;;;7.94;100.00;99757.56;6010013;29;20045;-89
2022/04/09 10:52:20;;;;;;;3.08;1.42;;;;;;;8.02;100.00;99754.38;6022462;29;20041;-89
2022/04/09 10:55:24;;;;;;;4.28;1.40;;;;;;;7.45;100.00;99771.75;6007318;29;20785;-89
2022/04/09 10:58:26;;;;;;;5.75;1.55;;;;;;;6.85;100.00;99789.19;6000641;29;20048;-90
2022/04/09 11:01:48;;;;;;;3.53;1.15;;;;;;;6.14;100.00;99822.69;6011976;29;20042;-88
2022/04/09 11:04:52;;;;;;;3.15;0.90;;;;;;;5.35;100.00;99819.59;6009413;29;20057;-89
2022/04/09 11:08:08;;;;;;;1.67;0.50;;;;;;;4.46;100.00;99817.03;6010478;29;20132;-91
2022/04/09 11:11:09;;;;;;;1.50;0.45;;;;;;;4.19;100.00;99809.38;6008552;29;20148;-87
2022/04/09 11:14:11;;;;;;;2.75;0.50;;;;;;;3.97;100.00;99808.16;6006019;29;20041;-88
2022/04/09 11:17:18;;;;;;;2.40;0.68;;;;;;;4.03;100.00;99795.00;6019428;29;20045;-88
2022/04/09 11:20:23;;;;;;;0.93;0.60;;;;;;;4.06;100.00;99796.53;6017518;29;20052;-89
2022/04/09 11:23:25;;;;;;;2.88;0.52;;;;;;;4.10;100.00;99803.94;6016905;29;20045;-89
2022/04/09 11:26:27;;;;;;;2.53;0.82;;;;;;;4.04;100.00;99788.94;6007091;29;20046;-89
2022/04/09 11:29:33;;;;;;;1.92;0.50;;;;;;;4.05;100.00;99794.88;6011657;29;20124;-90
2022/04/09 11:32:41;;;;;;;1.58;0.50;;;;;;;4.18;100.00;99787.25;6005765;29;20454;-89
2022/04/09 11:35:43;;;;;;;0.85;0.60;;;;;;;4.57;100.00;99776.16;6009509;29;20049;-90
2022/04/09 11:38:48;;;;;;;4.25;0.88;;;;;;;5.10;100.00;99787.09;6006091;29;20067;-91
2022/04/09 11:41:51;;;;;;;2.35;0.80;;;;;;;5.55;100.00;99784.03;6007876;29;20049;-91
2022/04/09 11:44:54;;;;;;;3.65;1.42;;;;;;;5.95;100.00;99788.94;6013070;29;20041;-90
2022/04/09 11:48:00;;;;;;;5.43;1.42;;;;;;;6.40;100.00;99792.50;6016533;29;20057;-92
2022/04/09 11:51:02;;;;;;;4.57;1.33;;;;;;;6.78;100.00;99809.44;6014794;29;20919;-93
2022/04/09 11:54:16;;;;;;;3.22;1.63;;;;;;;6.82;100.00;99821.13;6014815;29;20049;-92
2022/04/09 11:57:21;;;;;;;2.58;1.38;;;;;;;6.94;100.00;99844.28;6013737;29;20121;-90
2022/04/09 12:00:30;;;;;;;2.70;1.40;;;;;;;6.73;100.00;99851.84;6009576;29;20128;-92
2022/04/09 12:03:32;;;;;;;2.05;0.75;;;;;;;6.47;100.00;99846.88;6006569;29;20137;-92
2022/04/09 12:06:34;;;;;;;2.20;0.40;;;;;;;6.52;100.00;99865.34;6015616;29;20185;-90
2022/04/09 12:09:37;;;;;;;2.10;0.47;;;;;;;6.72;100.00;99855.34;6011235;29;20053;-92
2022/04/09 12:12:39;;;;;;;1.67;0.60;;;;;;;6.95;100.00;99881.94;6013174;29;20132;-94
2022/04/09 12:15:41;;;;;;;3.15;0.50;;;;;;;6.64;100.00;99926.16;6013716;29;20507;-91
2022/04/09 12:18:44;;;;;;;1.67;0.60;;;;;;;5.24;100.00;99931.56;6010493;29;20048;-89
2022/04/09 12:21:46;;;;;;;3.35;0.73;;;;;;;4.52;100.00;99911.44;6016773;29;20527;-92
2022/04/09 12:24:56;;;;;;;5.70;0.75;;;;;;;4.65;100.00;99904.63;6014396;29;20041;-94
2022/04/09 12:27:58;;;;;;;2.35;0.70;;;;;;;4.87;100.00;99893.81;6015294;29;20467;-90
2022/04/09 12:31:00;;;;;;;0.77;0.60;;;;;;;5.11;100.00;99880.25;6011006;29;20672;-90
2022/04/09 12:34:02;;;;;;;5.22;0.75;;;;;;;5.42;100.00;99884.16;6009478;29;20077;-89
2022/04/09 12:37:05;;;;;;;3.33;0.75;;;;;;;5.64;100.00;99872.41;6011281;29;20050;-92
2022/04/09 12:40:24;;;;;;;2.13;0.90;;;;;;;5.98;100.00;99881.19;6017168;29;20140;-92
2022/04/09 12:43:37;;;;;;;1.70;0.98;;;;;;;6.51;100.00;99880.88;6008755;29;20132;-93
2022/04/09 12:46:48;;;;;;;7.90;1.63;;;;;;;6.98;100.00;99890.28;6017584;29;20057;-93
2022/04/09 12:49:50;;;;;;;;;;;;;;;7.29;100.00;99893.94;6011938;29;20050;-93
2022/04/09 12:52:53;;;;;;;3.15;0.88;;;;;;;7.45;100.00;99895.34;6018170;29;19923;-93
2022/04/09 12:55:55;;;;;;;2.33;0.60;;;;;;;7.45;100.00;99898.75;6011728;29;20488;-91
2022/04/09 12:58:58;;;;;;;2.50;0.52;;;;;;;7.37;100.00;99911.38;6000774;29;20611;-92
2022/04/09 13:02:00;;;;;;;1.70;0.55;;;;;;;7.30;100.00;99926.47;6002508;29;20501;-92
2022/04/09 13:05:05;;;;;;;1.75;0.57;;;;;;;7.33;100.00;99895.34;5999399;29;21042;-92
2022/04/09 13:08:07;;;;;;;3.10;0.75;;;;;;;7.05;100.00;99906.88;6012327;29;20061;-92
2022/04/09 13:11:14;;;;;;;3.38;0.80;;;;;;;7.12;100.00;99905.47;6004726;29;20389;-90
2022/04/09 13:14:17;;;;;;;1.80;0.50;;;;;;;7.51;100.00;99890.53;6001272;29;20062;-92
2022/04/09 13:17:18;;;;;;;0.82;0.50;;;;;;;7.35;100.00;99915.81;6011456;29;20173;-91
2022/04/09 13:20:21;;;;;;;1.65;0.50;;;;;;;7.07;100.00;99917.06;6012138;29;20185;-91
2022/04/09 13:23:24;;;;;;;0.82;0.60;;;;;;;7.23;100.00;99922.72;5991128;29;20053;-93
2022/04/09 13:26:26;;;;;;;1.48;0.40;;;;;;;7.52;100.00;99917.13;6012839;29;20061;-93
2022/04/09 13:29:27;;;;;;;0.88;0.65;;;;;;;7.77;100.00;99927.16;6014221;29;20129;-91
2022/04/09 13:32:30;;;;;;;1.90;0.57;;;;;;;7.90;100.00;99919.34;6012993;29;20040;-93
2022/04/09 13:35:31;;;;;;;0.90;0.60;;;;;;;7.92;100.00;99932.09;5997301;29;20054;-90
2022/04/09 13:38:34;;;;;;;1.67;0.57;;;;;;;8.28;100.00;99909.53;6012538;29;20117;-89
2022/04/09 13:41:36;;;;;;;1.52;0.60;;;;;;;8.66;100.00;99926.31;6011321;29;20053;-91
2022/04/09 13:44:38;;;;;;;2.58;0.63;;;;;;;9.01;100.00;99944.09;6013046;29;20068;-91
2022/04/09 13:47:41;;;;;;;1.27;0.52;;;;;;;8.99;100.00;99935.66;6010743;29;20057;-91
2022/04/09 13:50:48;;;;;;;2.28;0.60;;;;;;;8.93;100.00;99941.31;6005965;29;20073;-92
2022/04/09 13:53:50;;;;;;;2.22;0.68;;;;;;;8.55;100.00;99937.50;6017397;29;20043;-94
2022/04/09 13:56:52;;;;;;;1.48;0.68;;;;;;;7.98;100.00;99944.50;6033443;29;20046;-93
2022/04/09 13:59:55;;;;;;;1.58;0.60;;;;;;;7.25;100.00;99961.19;6032642;29;20586;-94
2022/04/09 14:02:56;;;;;;;3.40;1.00;;;;;;;6.25;100.00;99982.03;6014007;29;20046;-92
2022/04/09 14:05:59;;;;;;;3.42;0.93;;;;;;;4.85;100.00;99987.13;6016359;29;20045;-91
2022/04/09 14:09:00;;;;;;;3.42;0.80;;;;;;;4.09;100.00;99989.22;6009830;29;20046;-92
2022/04/09 14:12:03;;;;;;;2.95;1.25;;;;;;;3.72;100.00;99993.16;6008767;29;20059;-93
2022/04/09 14:15:06;;;;;;;1.25;0.70;;;;;;;4.16;100.00;99979.44;6006422;29;20520;-92
2022/04/09 14:18:08;;;;;;;4.90;1.63;;;;;;;4.38;100.00;99973.81;6014608;29;20141;-93
2022/04/09 14:21:10;;;;;;;3.72;1.00;;;;;;;4.49;100.00;99971.38;6015031;29;20633;-93
2022/04/09 14:24:13;;;;;;;4.07;1.52;;;;;;;4.52;100.00;99981.47;6008677;29;20045;-90
2022/04/09 14:27:15;;;;;;;2.63;0.90;;;;;;;4.78;100.00;99973.06;6015375;29;20154;-90